sensor_id;sensor_type;location;lat;lon;timestamp;P1;durP1;ratioP1;P2;durP2;ratioP2
20896;SDS011;10608;42.600;23.398;2023-05-21T00:00:57;132.27;;;126.23;;
20896;SDS011;10608;42.600;23.398;2023-05-21T00:03:23;122.60;;;117.00;;
20896;SDS011;10608;42.600;23.398;2023-05-21T00:05:51;116.17;;;110.73;;
20896;SDS011;10608;42.600;23.398;2023-05-21T00:08:16;124.70;;;118.90;;
20896;SDS011;10608;42.600;23.398;2023-05-21T00:10:41;131.97;;;125.80;;
20896;SDS011;10608;42.600;23.398;2023-05-21T00:13:07;149.50;;;142.40;;
20896;SDS011;10608;42.600;23.398;2023-05-21T00:15:34;156.57;;;149.13;;
20896;SDS011;10608;42.600;23.398;2023-05-21T00:18:00;157.43;;;149.97;;
20896;SDS011;10608;42.600;23.398;2023-05-21T00:20:25;170.47;;;162.30;;
20896;SDS011;10608;42.600;23.398;2023-05-21T00:22:53;184.97;;;175.97;;
20896;SDS011;10608;42.600;23.398;2023-05-21T00:25:18;189.73;;;180.37;;
20896;SDS011;10608;42.600;23.398;2023-05-21T00:27:44;172.83;;;164.33;;
20896;SDS011;10608;42.600;23.398;2023-05-21T00:30:10;173.53;;;165.30;;
20896;SDS011;10608;42.600;23.398;2023-05-21T00:32:35;153.37;;;146.20;;
20896;SDS011;10608;42.600;23.398;2023-05-21T00:35:01;158.23;;;150.90;;
20896;SDS011;10608;42.600;23.398;2023-05-21T00:37:27;149.87;;;142.97;;
20896;SDS011;10608;42.600;23.398;2023-05-21T00:39:56;152.33;;;145.13;;
20896;SDS011;10608;42.600;23.398;2023-05-21T00:42:22;168.43;;;160.37;;
20896;SDS011;10608;42.600;23.398;2023-05-21T00:44:51;150.17;;;142.90;;
20896;SDS011;10608;42.600;23.398;2023-05-21T00:47:18;162.00;;;154.17;;
20896;SDS011;10608;42.600;23.398;2023-05-21T00:49:45;173.07;;;164.83;;
20896;SDS011;10608;42.600;23.398;2023-05-21T00:52:12;159.97;;;152.50;;
20896;SDS011;10608;42.600;23.398;2023-05-21T00:54:44;158.13;;;150.60;;
20896;SDS011;10608;42.600;23.398;2023-05-21T00:57:10;182.63;;;174.17;;
20896;SDS011;10608;42.600;23.398;2023-05-21T00:59:36;153.50;;;146.37;;
20896;SDS011;10608;42.600;23.398;2023-05-21T01:02:01;177.33;;;169.47;;
20896;SDS011;10608;42.600;23.398;2023-05-21T01:04:29;142.33;;;136.07;;
20896;SDS011;10608;42.600;23.398;2023-05-21T01:06:55;148.73;;;142.10;;
20896;SDS011;10608;42.600;23.398;2023-05-21T01:09:23;142.73;;;136.43;;
20896;SDS011;10608;42.600;23.398;2023-05-21T01:11:51;157.00;;;150.03;;
20896;SDS011;10608;42.600;23.398;2023-05-21T01:14:18;159.87;;;152.63;;
20896;SDS011;10608;42.600;23.398;2023-05-21T01:16:45;137.90;;;131.57;;
20896;SDS011;10608;42.600;23.398;2023-05-21T01:19:14;160.73;;;153.27;;
20896;SDS011;10608;42.600;23.398;2023-05-21T01:21:45;166.37;;;158.57;;
20896;SDS011;10608;42.600;23.398;2023-05-21T01:24:14;166.23;;;158.73;;
20896;SDS011;10608;42.600;23.398;2023-05-21T01:26:40;157.97;;;150.70;;
20896;SDS011;10608;42.600;23.398;2023-05-21T01:29:08;153.30;;;146.20;;
20896;SDS011;10608;42.600;23.398;2023-05-21T01:31:46;160.63;;;153.23;;
20896;SDS011;10608;42.600;23.398;2023-05-21T01:34:21;144.40;;;137.87;;
20896;SDS011;10608;42.600;23.398;2023-05-21T01:36:57;158.33;;;151.07;;
20896;SDS011;10608;42.600;23.398;2023-05-21T01:39:31;174.87;;;166.60;;
20896;SDS011;10608;42.600;23.398;2023-05-21T01:42:02;141.17;;;134.67;;
20896;SDS011;10608;42.600;23.398;2023-05-21T01:44:29;152.90;;;145.73;;
20896;SDS011;10608;42.600;23.398;2023-05-21T01:46:57;149.73;;;142.63;;
20896;SDS011;10608;42.600;23.398;2023-05-21T01:49:23;147.30;;;140.47;;
20896;SDS011;10608;42.600;23.398;2023-05-21T01:51:49;170.60;;;162.17;;
20896;SDS011;10608;42.600;23.398;2023-05-21T01:54:15;145.57;;;138.70;;
20896;SDS011;10608;42.600;23.398;2023-05-21T01:56:40;133.23;;;127.10;;
20896;SDS011;10608;42.600;23.398;2023-05-21T01:59:06;131.33;;;125.33;;
20896;SDS011;10608;42.600;23.398;2023-05-21T02:01:32;122.73;;;117.23;;
20896;SDS011;10608;42.600;23.398;2023-05-21T02:03:58;126.30;;;120.57;;
20896;SDS011;10608;42.600;23.398;2023-05-21T02:06:23;115.03;;;109.83;;
20896;SDS011;10608;42.600;23.398;2023-05-21T02:08:49;103.53;;;98.77;;
20896;SDS011;10608;42.600;23.398;2023-05-21T02:11:14;98.20;;;93.87;;
20896;SDS011;10608;42.600;23.398;2023-05-21T02:13:40;98.63;;;94.17;;
20896;SDS011;10608;42.600;23.398;2023-05-21T02:16:06;94.50;;;90.40;;
20896;SDS011;10608;42.600;23.398;2023-05-21T02:18:36;107.13;;;102.50;;
20896;SDS011;10608;42.600;23.398;2023-05-21T02:21:02;110.53;;;105.83;;
20896;SDS011;10608;42.600;23.398;2023-05-21T02:23:27;106.27;;;101.87;;
20896;SDS011;10608;42.600;23.398;2023-05-21T02:25:52;105.10;;;100.60;;
20896;SDS011;10608;42.600;23.398;2023-05-21T02:28:18;113.60;;;108.53;;
20896;SDS011;10608;42.600;23.398;2023-05-21T02:30:45;115.17;;;110.17;;
20896;SDS011;10608;42.600;23.398;2023-05-21T02:33:10;105.67;;;101.07;;
20896;SDS011;10608;42.600;23.398;2023-05-21T02:35:38;107.00;;;102.27;;
20896;SDS011;10608;42.600;23.398;2023-05-21T02:38:03;123.07;;;117.80;;
20896;SDS011;10608;42.600;23.398;2023-05-21T02:40:29;122.53;;;117.13;;
20896;SDS011;10608;42.600;23.398;2023-05-21T02:42:54;102.57;;;98.10;;
20896;SDS011;10608;42.600;23.398;2023-05-21T02:45:20;100.30;;;96.10;;
20896;SDS011;10608;42.600;23.398;2023-05-21T02:47:45;95.73;;;91.37;;
20896;SDS011;10608;42.600;23.398;2023-05-21T02:50:12;94.17;;;90.17;;
20896;SDS011;10608;42.600;23.398;2023-05-21T02:52:38;99.40;;;95.20;;
20896;SDS011;10608;42.600;23.398;2023-05-21T02:55:03;91.90;;;87.97;;
20896;SDS011;10608;42.600;23.398;2023-05-21T02:57:29;88.70;;;84.90;;
20896;SDS011;10608;42.600;23.398;2023-05-21T02:59:54;101.53;;;97.17;;
20896;SDS011;10608;42.600;23.398;2023-05-21T03:02:20;99.00;;;94.73;;
20896;SDS011;10608;42.600;23.398;2023-05-21T03:04:45;129.00;;;123.47;;
20896;SDS011;10608;42.600;23.398;2023-05-21T03:07:14;140.33;;;134.33;;
20896;SDS011;10608;42.600;23.398;2023-05-21T03:09:42;171.27;;;163.60;;
20896;SDS011;10608;42.600;23.398;2023-05-21T03:12:07;140.43;;;134.33;;
20896;SDS011;10608;42.600;23.398;2023-05-21T03:14:33;133.17;;;127.37;;
20896;SDS011;10608;42.600;23.398;2023-05-21T03:16:59;149.27;;;142.77;;
20896;SDS011;10608;42.600;23.398;2023-05-21T03:19:24;159.33;;;151.83;;
20896;SDS011;10608;42.600;23.398;2023-05-21T03:21:50;153.60;;;146.00;;
20896;SDS011;10608;42.600;23.398;2023-05-21T03:24:16;151.00;;;144.27;;
20896;SDS011;10608;42.600;23.398;2023-05-21T03:26:42;146.83;;;139.80;;
20896;SDS011;10608;42.600;23.398;2023-05-21T03:29:08;163.33;;;155.83;;
20896;SDS011;10608;42.600;23.398;2023-05-21T03:31:33;164.40;;;157.27;;
20896;SDS011;10608;42.600;23.398;2023-05-21T03:33:58;169.00;;;161.50;;
20896;SDS011;10608;42.600;23.398;2023-05-21T03:36:24;157.33;;;150.33;;
20896;SDS011;10608;42.600;23.398;2023-05-21T03:38:49;154.17;;;147.30;;
20896;SDS011;10608;42.600;23.398;2023-05-21T03:41:14;156.90;;;149.63;;
20896;SDS011;10608;42.600;23.398;2023-05-21T03:43:40;132.70;;;126.30;;
20896;SDS011;10608;42.600;23.398;2023-05-21T03:46:05;126.70;;;120.60;;
20896;SDS011;10608;42.600;23.398;2023-05-21T03:48:31;112.67;;;107.50;;
20896;SDS011;10608;42.600;23.398;2023-05-21T03:50:56;118.33;;;112.80;;
20896;SDS011;10608;42.600;23.398;2023-05-21T03:53:21;111.30;;;106.37;;
20896;SDS011;10608;42.600;23.398;2023-05-21T03:55:47;122.37;;;116.93;;
20896;SDS011;10608;42.600;23.398;2023-05-21T03:58:19;119.57;;;113.93;;
20896;SDS011;10608;42.600;23.398;2023-05-21T04:00:48;113.90;;;108.83;;
20896;SDS011;10608;42.600;23.398;2023-05-21T04:03:13;113.20;;;108.20;;
20896;SDS011;10608;42.600;23.398;2023-05-21T04:05:42;122.57;;;116.93;;
20896;SDS011;10608;42.600;23.398;2023-05-21T04:08:07;116.07;;;110.77;;
20896;SDS011;10608;42.600;23.398;2023-05-21T04:10:33;115.63;;;110.37;;
20896;SDS011;10608;42.600;23.398;2023-05-21T04:12:58;101.57;;;97.00;;
20896;SDS011;10608;42.600;23.398;2023-05-21T04:15:24;107.77;;;102.87;;
20896;SDS011;10608;42.600;23.398;2023-05-21T04:17:49;120.47;;;114.90;;
20896;SDS011;10608;42.600;23.398;2023-05-21T04:20:16;110.53;;;105.47;;
20896;SDS011;10608;42.600;23.398;2023-05-21T04:22:42;92.60;;;88.33;;
20896;SDS011;10608;42.600;23.398;2023-05-21T04:25:07;83.87;;;80.17;;
20896;SDS011;10608;42.600;23.398;2023-05-21T04:27:33;78.67;;;75.17;;
20896;SDS011;10608;42.600;23.398;2023-05-21T04:29:59;68.53;;;65.57;;
20896;SDS011;10608;42.600;23.398;2023-05-21T04:32:25;70.50;;;67.20;;
20896;SDS011;10608;42.600;23.398;2023-05-21T04:34:52;87.83;;;84.03;;
20896;SDS011;10608;42.600;23.398;2023-05-21T04:37:18;79.73;;;76.30;;
20896;SDS011;10608;42.600;23.398;2023-05-21T04:39:43;84.03;;;80.33;;
20896;SDS011;10608;42.600;23.398;2023-05-21T04:42:09;90.97;;;86.87;;
20896;SDS011;10608;42.600;23.398;2023-05-21T04:44:38;86.73;;;82.87;;
20896;SDS011;10608;42.600;23.398;2023-05-21T04:47:08;63.00;;;60.23;;
20896;SDS011;10608;42.600;23.398;2023-05-21T04:49:34;61.47;;;58.83;;
20896;SDS011;10608;42.600;23.398;2023-05-21T04:52:00;59.40;;;56.70;;
20896;SDS011;10608;42.600;23.398;2023-05-21T04:54:26;64.97;;;62.17;;
20896;SDS011;10608;42.600;23.398;2023-05-21T04:56:52;70.43;;;67.43;;
20896;SDS011;10608;42.600;23.398;2023-05-21T04:59:18;60.97;;;58.30;;
20896;SDS011;10608;42.600;23.398;2023-05-21T05:01:44;62.87;;;60.17;;
20896;SDS011;10608;42.600;23.398;2023-05-21T05:04:09;61.37;;;58.70;;
20896;SDS011;10608;42.600;23.398;2023-05-21T05:06:35;53.77;;;51.37;;
20896;SDS011;10608;42.600;23.398;2023-05-21T05:09:00;61.93;;;59.23;;
20896;SDS011;10608;42.600;23.398;2023-05-21T05:11:26;72.70;;;69.60;;
20896;SDS011;10608;42.600;23.398;2023-05-21T05:13:51;59.10;;;56.47;;
20896;SDS011;10608;42.600;23.398;2023-05-21T05:16:17;69.67;;;66.67;;
20896;SDS011;10608;42.600;23.398;2023-05-21T05:18:48;53.23;;;50.97;;
20896;SDS011;10608;42.600;23.398;2023-05-21T05:21:19;46.93;;;44.97;;
20896;SDS011;10608;42.600;23.398;2023-05-21T05:23:45;51.50;;;49.33;;
20896;SDS011;10608;42.600;23.398;2023-05-21T05:26:11;47.40;;;45.23;;
20896;SDS011;10608;42.600;23.398;2023-05-21T05:28:36;18.07;;;17.23;;
20896;SDS011;10608;42.600;23.398;2023-05-21T05:31:02;28.30;;;27.03;;
20896;SDS011;10608;42.600;23.398;2023-05-21T05:33:27;64.03;;;61.33;;
20896;SDS011;10608;42.600;23.398;2023-05-21T05:35:53;113.60;;;108.80;;
20896;SDS011;10608;42.600;23.398;2023-05-21T05:38:18;102.87;;;98.60;;
20896;SDS011;10608;42.600;23.398;2023-05-21T05:40:43;48.63;;;46.53;;
20896;SDS011;10608;42.600;23.398;2023-05-21T05:43:09;44.90;;;42.87;;
20896;SDS011;10608;42.600;23.398;2023-05-21T05:45:34;43.20;;;41.37;;
20896;SDS011;10608;42.600;23.398;2023-05-21T05:48:00;43.97;;;42.07;;
20896;SDS011;10608;42.600;23.398;2023-05-21T05:50:25;71.50;;;68.57;;
20896;SDS011;10608;42.600;23.398;2023-05-21T05:52:51;89.07;;;85.50;;
20896;SDS011;10608;42.600;23.398;2023-05-21T05:55:16;67.17;;;64.43;;
20896;SDS011;10608;42.600;23.398;2023-05-21T05:57:42;66.73;;;63.83;;
20896;SDS011;10608;42.600;23.398;2023-05-21T06:00:07;61.13;;;58.57;;
20896;SDS011;10608;42.600;23.398;2023-05-21T06:02:34;31.80;;;30.43;;
20896;SDS011;10608;42.600;23.398;2023-05-21T06:05:00;22.37;;;21.47;;
20896;SDS011;10608;42.600;23.398;2023-05-21T06:07:26;14.13;;;13.50;;
20896;SDS011;10608;42.600;23.398;2023-05-21T06:09:52;51.73;;;49.60;;
20896;SDS011;10608;42.600;23.398;2023-05-21T06:12:17;25.43;;;23.73;;
20896;SDS011;10608;42.600;23.398;2023-05-21T06:14:42;17.87;;;17.10;;
20896;SDS011;10608;42.600;23.398;2023-05-21T06:17:09;16.33;;;15.63;;
20896;SDS011;10608;42.600;23.398;2023-05-21T06:19:35;41.90;;;40.07;;
20896;SDS011;10608;42.600;23.398;2023-05-21T06:22:00;15.10;;;14.40;;
20896;SDS011;10608;42.600;23.398;2023-05-21T06:24:26;28.03;;;26.70;;
20896;SDS011;10608;42.600;23.398;2023-05-21T06:26:51;21.97;;;21.07;;
20896;SDS011;10608;42.600;23.398;2023-05-21T06:29:16;26.80;;;25.60;;
20896;SDS011;10608;42.600;23.398;2023-05-21T06:31:42;74.00;;;71.00;;
20896;SDS011;10608;42.600;23.398;2023-05-21T06:34:08;23.40;;;22.33;;
20896;SDS011;10608;42.600;23.398;2023-05-21T06:36:34;18.20;;;17.43;;
20896;SDS011;10608;42.600;23.398;2023-05-21T06:39:00;56.80;;;54.43;;
20896;SDS011;10608;42.600;23.398;2023-05-21T06:41:26;41.73;;;39.97;;
20896;SDS011;10608;42.600;23.398;2023-05-21T06:43:51;49.33;;;47.13;;
20896;SDS011;10608;42.600;23.398;2023-05-21T06:46:17;22.33;;;21.30;;
20896;SDS011;10608;42.600;23.398;2023-05-21T06:48:42;39.93;;;38.23;;
20896;SDS011;10608;42.600;23.398;2023-05-21T06:51:08;25.43;;;24.33;;
20896;SDS011;10608;42.600;23.398;2023-05-21T06:53:34;30.33;;;29.07;;
20896;SDS011;10608;42.600;23.398;2023-05-21T06:55:59;33.50;;;32.00;;
20896;SDS011;10608;42.600;23.398;2023-05-21T06:58:24;36.03;;;34.33;;
20896;SDS011;10608;42.600;23.398;2023-05-21T07:00:55;27.83;;;26.43;;
20896;SDS011;10608;42.600;23.398;2023-05-21T07:03:20;45.50;;;43.50;;
20896;SDS011;10608;42.600;23.398;2023-05-21T07:05:46;23.40;;;22.37;;
20896;SDS011;10608;42.600;23.398;2023-05-21T07:08:11;20.13;;;19.30;;
20896;SDS011;10608;42.600;23.398;2023-05-21T07:10:37;27.77;;;26.53;;
20896;SDS011;10608;42.600;23.398;2023-05-21T07:13:02;17.57;;;16.67;;
20896;SDS011;10608;42.600;23.398;2023-05-21T07:15:27;17.03;;;16.23;;
20896;SDS011;10608;42.600;23.398;2023-05-21T07:17:53;11.80;;;11.17;;
20896;SDS011;10608;42.600;23.398;2023-05-21T07:20:18;28.03;;;26.80;;
20896;SDS011;10608;42.600;23.398;2023-05-21T07:22:44;43.80;;;41.93;;
20896;SDS011;10608;42.600;23.398;2023-05-21T07:25:09;29.83;;;28.50;;
20896;SDS011;10608;42.600;23.398;2023-05-21T07:27:34;28.60;;;27.30;;
20896;SDS011;10608;42.600;23.398;2023-05-21T07:30:00;17.23;;;16.43;;
20896;SDS011;10608;42.600;23.398;2023-05-21T07:32:25;13.70;;;12.80;;
20896;SDS011;10608;42.600;23.398;2023-05-21T07:34:53;16.87;;;16.20;;
20896;SDS011;10608;42.600;23.398;2023-05-21T07:37:18;50.93;;;48.80;;
20896;SDS011;10608;42.600;23.398;2023-05-21T07:39:44;39.63;;;37.97;;
20896;SDS011;10608;42.600;23.398;2023-05-21T07:42:10;48.57;;;46.60;;
20896;SDS011;10608;42.600;23.398;2023-05-21T07:44:35;24.23;;;23.20;;
20896;SDS011;10608;42.600;23.398;2023-05-21T07:47:00;13.73;;;12.87;;
20896;SDS011;10608;42.600;23.398;2023-05-21T07:49:26;21.17;;;20.27;;
20896;SDS011;10608;42.600;23.398;2023-05-21T07:51:51;135.87;;;130.20;;
20896;SDS011;10608;42.600;23.398;2023-05-21T07:54:16;43.20;;;41.40;;
20896;SDS011;10608;42.600;23.398;2023-05-21T07:56:43;38.00;;;36.20;;
20896;SDS011;10608;42.600;23.398;2023-05-21T07:59:08;44.07;;;42.17;;
20896;SDS011;10608;42.600;23.398;2023-05-21T08:01:34;65.97;;;63.17;;
20896;SDS011;10608;42.600;23.398;2023-05-21T08:04:01;106.27;;;101.97;;
20896;SDS011;10608;42.600;23.398;2023-05-21T08:06:30;59.47;;;56.97;;
20896;SDS011;10608;42.600;23.398;2023-05-21T08:08:58;14.97;;;14.17;;
20896;SDS011;10608;42.600;23.398;2023-05-21T08:11:27;14.97;;;13.73;;
20896;SDS011;10608;42.600;23.398;2023-05-21T08:13:52;11.87;;;11.27;;
20896;SDS011;10608;42.600;23.398;2023-05-21T08:16:18;16.23;;;15.50;;
20896;SDS011;10608;42.600;23.398;2023-05-21T08:18:43;41.10;;;39.30;;
20896;SDS011;10608;42.600;23.398;2023-05-21T08:21:09;104.10;;;99.80;;
20896;SDS011;10608;42.600;23.398;2023-05-21T08:23:34;22.03;;;21.13;;
20896;SDS011;10608;42.600;23.398;2023-05-21T08:26:00;21.13;;;20.23;;
20896;SDS011;10608;42.600;23.398;2023-05-21T08:28:25;44.17;;;42.37;;
20896;SDS011;10608;42.600;23.398;2023-05-21T08:30:52;41.23;;;39.53;;
20896;SDS011;10608;42.600;23.398;2023-05-21T08:33:18;9.90;;;9.00;;
20896;SDS011;10608;42.600;23.398;2023-05-21T08:35:44;19.50;;;17.37;;
20896;SDS011;10608;42.600;23.398;2023-05-21T08:38:09;100.47;;;96.30;;
20896;SDS011;10608;42.600;23.398;2023-05-21T08:40:35;98.40;;;94.43;;
20896;SDS011;10608;42.600;23.398;2023-05-21T08:43:00;83.07;;;79.57;;
20896;SDS011;10608;42.600;23.398;2023-05-21T08:45:26;80.87;;;77.40;;
20896;SDS011;10608;42.600;23.398;2023-05-21T08:47:59;89.23;;;85.63;;
20896;SDS011;10608;42.600;23.398;2023-05-21T08:50:25;115.67;;;111.03;;
20896;SDS011;10608;42.600;23.398;2023-05-21T08:52:51;53.30;;;51.10;;
20896;SDS011;10608;42.600;23.398;2023-05-21T08:55:19;41.13;;;39.43;;
20896;SDS011;10608;42.600;23.398;2023-05-21T08:57:46;44.50;;;42.63;;
20896;SDS011;10608;42.600;23.398;2023-05-21T09:00:12;50.43;;;48.33;;
20896;SDS011;10608;42.600;23.398;2023-05-21T09:02:38;64.47;;;61.80;;
20896;SDS011;10608;42.600;23.398;2023-05-21T09:05:08;68.83;;;66.03;;
20896;SDS011;10608;42.600;23.398;2023-05-21T09:07:38;29.27;;;27.97;;
20896;SDS011;10608;42.600;23.398;2023-05-21T09:10:11;13.33;;;12.50;;
20896;SDS011;10608;42.600;23.398;2023-05-21T09:12:37;20.67;;;19.73;;
20896;SDS011;10608;42.600;23.398;2023-05-21T09:15:04;18.83;;;18.03;;
20896;SDS011;10608;42.600;23.398;2023-05-21T09:17:30;18.77;;;17.67;;
20896;SDS011;10608;42.600;23.398;2023-05-21T09:20:28;24.63;;;23.63;;
20896;SDS011;10608;42.600;23.398;2023-05-21T09:22:51;24.00;;;23.00;;
20896;SDS011;10608;42.600;23.398;2023-05-21T09:25:23;16.37;;;15.67;;
20896;SDS011;10608;42.600;23.398;2023-05-21T09:27:56;22.60;;;21.60;;
20896;SDS011;10608;42.600;23.398;2023-05-21T09:30:22;16.03;;;15.23;;
20896;SDS011;10608;42.600;23.398;2023-05-21T09:32:57;17.73;;;16.93;;
20896;SDS011;10608;42.600;23.398;2023-05-21T09:35:23;34.80;;;33.30;;
20896;SDS011;10608;42.600;23.398;2023-05-21T09:37:50;38.93;;;37.30;;
20896;SDS011;10608;42.600;23.398;2023-05-21T09:40:18;21.07;;;19.87;;
20896;SDS011;10608;42.600;23.398;2023-05-21T09:42:45;26.17;;;25.07;;
20896;SDS011;10608;42.600;23.398;2023-05-21T09:45:18;25.23;;;24.13;;
20896;SDS011;10608;42.600;23.398;2023-05-21T09:47:45;28.23;;;27.03;;
20896;SDS011;10608;42.600;23.398;2023-05-21T09:50:12;23.50;;;22.40;;
20896;SDS011;10608;42.600;23.398;2023-05-21T09:52:41;24.73;;;23.73;;
20896;SDS011;10608;42.600;23.398;2023-05-21T09:55:09;25.83;;;24.67;;
20896;SDS011;10608;42.600;23.398;2023-05-21T09:57:44;23.60;;;22.63;;
20896;SDS011;10608;42.600;23.398;2023-05-21T10:02:45;21.50;;;20.60;;
20896;SDS011;10608;42.600;23.398;2023-05-21T10:05:15;17.70;;;16.97;;
20896;SDS011;10608;42.600;23.398;2023-05-21T10:07:47;18.70;;;17.90;;
20896;SDS011;10608;42.600;23.398;2023-05-21T10:10:15;15.27;;;14.57;;
20896;SDS011;10608;42.600;23.398;2023-05-21T10:12:45;27.20;;;26.07;;
20896;SDS011;10608;42.600;23.398;2023-05-21T10:15:12;18.90;;;18.10;;
20896;SDS011;10608;42.600;23.398;2023-05-21T10:17:40;23.83;;;22.83;;
20896;SDS011;10608;42.600;23.398;2023-05-21T10:20:07;23.83;;;22.87;;
20896;SDS011;10608;42.600;23.398;2023-05-21T10:22:34;25.67;;;24.57;;
20896;SDS011;10608;42.600;23.398;2023-05-21T10:25:01;25.20;;;24.20;;
20896;SDS011;10608;42.600;23.398;2023-05-21T10:27:28;25.30;;;24.20;;
20896;SDS011;10608;42.600;23.398;2023-05-21T10:29:55;28.97;;;27.67;;
20896;SDS011;10608;42.600;23.398;2023-05-21T10:32:23;49.83;;;47.67;;
20896;SDS011;10608;42.600;23.398;2023-05-21T10:34:51;31.87;;;30.57;;
20896;SDS011;10608;42.600;23.398;2023-05-21T10:37:18;21.10;;;20.23;;
20896;SDS011;10608;42.600;23.398;2023-05-21T10:39:47;29.23;;;28.00;;
20896;SDS011;10608;42.600;23.398;2023-05-21T10:42:19;28.10;;;26.90;;
20896;SDS011;10608;42.600;23.398;2023-05-21T10:44:56;17.57;;;16.67;;
20896;SDS011;10608;42.600;23.398;2023-05-21T10:56:22;33.10;;;31.73;;
20896;SDS011;10608;42.600;23.398;2023-05-21T11:01:36;45.20;;;43.30;;
20896;SDS011;10608;42.600;23.398;2023-05-21T11:04:05;42.60;;;40.77;;
20896;SDS011;10608;42.600;23.398;2023-05-21T11:06:31;37.10;;;35.53;;
20896;SDS011;10608;42.600;23.398;2023-05-21T11:09:01;20.93;;;19.97;;
20896;SDS011;10608;42.600;23.398;2023-05-21T11:16:59;14.30;;;13.70;;
20896;SDS011;10608;42.600;23.398;2023-05-21T11:19:46;18.17;;;17.37;;
20896;SDS011;10608;42.600;23.398;2023-05-21T11:22:23;18.97;;;18.17;;
20896;SDS011;10608;42.600;23.398;2023-05-21T11:24:50;25.13;;;24.03;;
20896;SDS011;10608;42.600;23.398;2023-05-21T11:35:37;24.83;;;23.63;;
20896;SDS011;10608;42.600;23.398;2023-05-21T11:38:21;17.10;;;16.10;;
20896;SDS011;10608;42.600;23.398;2023-05-21T11:40:50;15.63;;;15.03;;
20896;SDS011;10608;42.600;23.398;2023-05-21T11:43:18;26.67;;;25.47;;
20896;SDS011;10608;42.600;23.398;2023-05-21T11:45:44;19.73;;;18.93;;
20896;SDS011;10608;42.600;23.398;2023-05-21T11:48:14;15.50;;;14.80;;
20896;SDS011;10608;42.600;23.398;2023-05-21T11:50:40;23.47;;;22.43;;
20896;SDS011;10608;42.600;23.398;2023-05-21T11:53:09;27.57;;;26.27;;
20896;SDS011;10608;42.600;23.398;2023-05-21T11:55:38;16.93;;;16.07;;
20896;SDS011;10608;42.600;23.398;2023-05-21T11:58:07;18.47;;;17.63;;
20896;SDS011;10608;42.600;23.398;2023-05-21T12:00:37;34.23;;;32.83;;
20896;SDS011;10608;42.600;23.398;2023-05-21T12:03:06;26.53;;;25.40;;
20896;SDS011;10608;42.600;23.398;2023-05-21T12:05:47;14.33;;;13.30;;
20896;SDS011;10608;42.600;23.398;2023-05-21T12:08:20;12.80;;;12.23;;
20896;SDS011;10608;42.600;23.398;2023-05-21T12:10:58;16.80;;;15.90;;
20896;SDS011;10608;42.600;23.398;2023-05-21T12:13:24;25.53;;;24.43;;
20896;SDS011;10608;42.600;23.398;2023-05-21T12:15:51;49.23;;;47.10;;
20896;SDS011;10608;42.600;23.398;2023-05-21T12:18:17;34.67;;;32.60;;
20896;SDS011;10608;42.600;23.398;2023-05-21T12:20:43;20.87;;;19.97;;
20896;SDS011;10608;42.600;23.398;2023-05-21T12:23:17;21.80;;;20.87;;
20896;SDS011;10608;42.600;23.398;2023-05-21T12:25:51;15.83;;;15.17;;
20896;SDS011;10608;42.600;23.398;2023-05-21T12:28:19;14.97;;;14.27;;
20896;SDS011;10608;42.600;23.398;2023-05-21T12:30:46;38.57;;;36.83;;
20896;SDS011;10608;42.600;23.398;2023-05-21T12:33:11;34.57;;;33.00;;
20896;SDS011;10608;42.600;23.398;2023-05-21T12:35:38;34.53;;;33.10;;
20896;SDS011;10608;42.600;23.398;2023-05-21T12:38:03;28.57;;;27.33;;
20896;SDS011;10608;42.600;23.398;2023-05-21T12:40:35;31.97;;;30.53;;
20896;SDS011;10608;42.600;23.398;2023-05-21T12:43:05;57.67;;;55.23;;
20896;SDS011;10608;42.600;23.398;2023-05-21T12:45:31;61.67;;;59.07;;
20896;SDS011;10608;42.600;23.398;2023-05-21T12:48:00;69.07;;;66.17;;
20896;SDS011;10608;42.600;23.398;2023-05-21T12:50:25;75.90;;;72.77;;
20896;SDS011;10608;42.600;23.398;2023-05-21T12:52:54;87.00;;;83.43;;
20896;SDS011;10608;42.600;23.398;2023-05-21T12:55:21;66.77;;;63.80;;
20896;SDS011;10608;42.600;23.398;2023-05-21T12:57:47;63.00;;;60.37;;
20896;SDS011;10608;42.600;23.398;2023-05-21T13:00:12;67.37;;;64.57;;
20896;SDS011;10608;42.600;23.398;2023-05-21T13:05:04;61.13;;;58.47;;
20896;SDS011;10608;42.600;23.398;2023-05-21T13:07:31;61.23;;;58.63;;
20896;SDS011;10608;42.600;23.398;2023-05-21T13:09:57;55.77;;;53.40;;
20896;SDS011;10608;42.600;23.398;2023-05-21T13:12:24;51.10;;;48.90;;
20896;SDS011;10608;42.600;23.398;2023-05-21T13:14:53;37.17;;;35.67;;
20896;SDS011;10608;42.600;23.398;2023-05-21T13:17:20;24.13;;;23.07;;
20896;SDS011;10608;42.600;23.398;2023-05-21T13:22:34;30.40;;;29.13;;
20896;SDS011;10608;42.600;23.398;2023-05-21T13:25:03;48.80;;;46.57;;
20896;SDS011;10608;42.600;23.398;2023-05-21T13:27:29;38.63;;;37.03;;
20896;SDS011;10608;42.600;23.398;2023-05-21T13:29:54;51.60;;;49.47;;
20896;SDS011;10608;42.600;23.398;2023-05-21T13:32:20;47.13;;;45.17;;
20896;SDS011;10608;42.600;23.398;2023-05-21T13:34:46;45.87;;;43.97;;
20896;SDS011;10608;42.600;23.398;2023-05-21T13:37:12;40.17;;;38.40;;
20896;SDS011;10608;42.600;23.398;2023-05-21T13:39:37;36.10;;;34.57;;
20896;SDS011;10608;42.600;23.398;2023-05-21T13:42:03;39.03;;;37.30;;
20896;SDS011;10608;42.600;23.398;2023-05-21T13:44:29;34.67;;;33.07;;
20896;SDS011;10608;42.600;23.398;2023-05-21T13:46:57;32.80;;;31.40;;
20896;SDS011;10608;42.600;23.398;2023-05-21T13:49:22;37.67;;;36.07;;
20896;SDS011;10608;42.600;23.398;2023-05-21T13:51:48;53.63;;;51.23;;
20896;SDS011;10608;42.600;23.398;2023-05-21T13:54:13;55.30;;;52.87;;
20896;SDS011;10608;42.600;23.398;2023-05-21T13:56:39;47.13;;;44.97;;
20896;SDS011;10608;42.600;23.398;2023-05-21T13:59:05;47.83;;;45.70;;
20896;SDS011;10608;42.600;23.398;2023-05-21T14:01:30;43.60;;;41.77;;
20896;SDS011;10608;42.600;23.398;2023-05-21T14:03:55;36.33;;;34.80;;
20896;SDS011;10608;42.600;23.398;2023-05-21T14:06:21;37.93;;;36.07;;
20896;SDS011;10608;42.600;23.398;2023-05-21T14:08:47;40.40;;;38.70;;
20896;SDS011;10608;42.600;23.398;2023-05-21T14:11:12;36.73;;;35.13;;
20896;SDS011;10608;42.600;23.398;2023-05-21T14:13:37;41.20;;;39.43;;
20896;SDS011;10608;42.600;23.398;2023-05-21T14:16:03;45.23;;;43.23;;
20896;SDS011;10608;42.600;23.398;2023-05-21T14:18:29;33.07;;;31.60;;
20896;SDS011;10608;42.600;23.398;2023-05-21T14:20:54;26.07;;;24.97;;
20896;SDS011;10608;42.600;23.398;2023-05-21T14:23:19;17.00;;;16.23;;
20896;SDS011;10608;42.600;23.398;2023-05-21T14:25:45;13.27;;;12.53;;
20896;SDS011;10608;42.600;23.398;2023-05-21T14:28:10;15.77;;;15.07;;
20896;SDS011;10608;42.600;23.398;2023-05-21T14:30:35;33.73;;;32.07;;
20896;SDS011;10608;42.600;23.398;2023-05-21T14:33:01;28.40;;;27.20;;